sensor_id;sensor_type;location;lat;lon;timestamp;temperature;humidity
13652;DHT22;6899;51.546;6.912;2023-02-18T00:00:18;9.90;99.90
13652;DHT22;6899;51.546;6.912;2023-02-18T00:02:46;9.90;99.90
13652;DHT22;6899;51.546;6.912;2023-02-18T00:05:13;9.90;99.90
13652;DHT22;6899;51.546;6.912;2023-02-18T00:07:41;9.90;99.90
13652;DHT22;6899;51.546;6.912;2023-02-18T00:10:13;10.00;99.90
13652;DHT22;6899;51.546;6.912;2023-02-18T00:12:40;10.00;99.90
13652;DHT22;6899;51.546;6.912;2023-02-18T00:15:09;10.00;99.90
13652;DHT22;6899;51.546;6.912;2023-02-18T00:17:36;10.00;99.90
13652;DHT22;6899;51.546;6.912;2023-02-18T00:20:04;10.00;99.90
13652;DHT22;6899;51.546;6.912;2023-02-18T00:22:31;10.00;99.90
13652;DHT22;6899;51.546;6.912;2023-02-18T00:24:58;10.00;99.90
13652;DHT22;6899;51.546;6.912;2023-02-18T00:27:25;10.00;99.90
13652;DHT22;6899;51.546;6.912;2023-02-18T00:29:52;10.00;99.90
13652;DHT22;6899;51.546;6.912;2023-02-18T00:32:20;9.90;99.90
13652;DHT22;6899;51.546;6.912;2023-02-18T00:34:47;10.00;99.90
13652;DHT22;6899;51.546;6.912;2023-02-18T00:37:14;10.00;99.90
13652;DHT22;6899;51.546;6.912;2023-02-18T00:39:41;10.00;99.90
13652;DHT22;6899;51.546;6.912;2023-02-18T00:42:08;10.00;99.90
13652;DHT22;6899;51.546;6.912;2023-02-18T00:44:35;10.00;99.90
13652;DHT22;6899;51.546;6.912;2023-02-18T00:47:02;10.00;99.90
13652;DHT22;6899;51.546;6.912;2023-02-18T00:49:30;10.10;99.90
13652;DHT22;6899;51.546;6.912;2023-02-18T00:51:57;10.10;99.90
13652;DHT22;6899;51.546;6.912;2023-02-18T00:54:24;10.00;99.90
13652;DHT22;6899;51.546;6.912;2023-02-18T00:56:51;10.10;99.90
13652;DHT22;6899;51.546;6.912;2023-02-18T00:59:18;10.10;99.90
13652;DHT22;6899;51.546;6.912;2023-02-18T01:01:45;10.10;99.90
13652;DHT22;6899;51.546;6.912;2023-02-18T01:04:12;10.00;99.90
13652;DHT22;6899;51.546;6.912;2023-02-18T01:06:40;10.10;99.90
13652;DHT22;6899;51.546;6.912;2023-02-18T01:09:12;10.10;99.90
13652;DHT22;6899;51.546;6.912;2023-02-18T01:11:39;10.10;99.90
13652;DHT22;6899;51.546;6.912;2023-02-18T01:14:06;10.00;99.90
13652;DHT22;6899;51.546;6.912;2023-02-18T01:16:33;10.10;99.90
13652;DHT22;6899;51.546;6.912;2023-02-18T01:19:00;10.00;99.90
13652;DHT22;6899;51.546;6.912;2023-02-18T01:21:27;10.10;99.90
13652;DHT22;6899;51.546;6.912;2023-02-18T01:23:58;10.00;99.90
13652;DHT22;6899;51.546;6.912;2023-02-18T01:26:25;10.00;99.90
13652;DHT22;6899;51.546;6.912;2023-02-18T01:28:52;10.00;99.90
13652;DHT22;6899;51.546;6.912;2023-02-18T01:31:19;9.90;99.90
13652;DHT22;6899;51.546;6.912;2023-02-18T01:33:46;10.00;99.90
13652;DHT22;6899;51.546;6.912;2023-02-18T01:36:13;10.00;99.90
13652;DHT22;6899;51.546;6.912;2023-02-18T01:38:39;10.00;99.90
13652;DHT22;6899;51.546;6.912;2023-02-18T01:41:08;10.00;99.90
13652;DHT22;6899;51.546;6.912;2023-02-18T01:43:35;10.00;99.90
13652;DHT22;6899;51.546;6.912;2023-02-18T01:46:14;10.00;99.90
13652;DHT22;6899;51.546;6.912;2023-02-18T01:48:49;10.00;99.90
13652;DHT22;6899;51.546;6.912;2023-02-18T01:51:21;10.00;99.90
13652;DHT22;6899;51.546;6.912;2023-02-18T01:53:53;10.00;99.90
13652;DHT22;6899;51.546;6.912;2023-02-18T01:56:28;10.00;99.90
13652;DHT22;6899;51.546;6.912;2023-02-18T01:58:59;10.00;99.90
13652;DHT22;6899;51.546;6.912;2023-02-18T02:01:28;10.00;99.90
13652;DHT22;6899;51.546;6.912;2023-02-18T02:03:56;10.00;99.90
13652;DHT22;6899;51.546;6.912;2023-02-18T02:06:23;10.00;99.90
13652;DHT22;6899;51.546;6.912;2023-02-18T02:08:57;9.90;99.90
13652;DHT22;6899;51.546;6.912;2023-02-18T02:11:55;10.00;99.90
13652;DHT22;6899;51.546;6.912;2023-02-18T02:14:42;9.90;99.90
13652;DHT22;6899;51.546;6.912;2023-02-18T02:17:18;10.00;99.90
13652;DHT22;6899;51.546;6.912;2023-02-18T02:20:21;9.90;99.90
13652;DHT22;6899;51.546;6.912;2023-02-18T02:26:27;9.90;99.90
13652;DHT22;6899;51.546;6.912;2023-02-18T02:34:49;9.90;99.90
13652;DHT22;6899;51.546;6.912;2023-02-18T02:37:21;9.90;99.90
13652;DHT22;6899;51.546;6.912;2023-02-18T02:40:00;9.90;99.90
13652;DHT22;6899;51.546;6.912;2023-02-18T02:42:37;9.90;99.90
13652;DHT22;6899;51.546;6.912;2023-02-18T02:45:12;10.00;99.90
13652;DHT22;6899;51.546;6.912;2023-02-18T02:47:44;10.00;99.90
13652;DHT22;6899;51.546;6.912;2023-02-18T02:50:18;10.00;99.90
13652;DHT22;6899;51.546;6.912;2023-02-18T02:52:52;9.90;99.90
13652;DHT22;6899;51.546;6.912;2023-02-18T02:55:23;9.90;99.90
13652;DHT22;6899;51.546;6.912;2023-02-18T02:57:52;9.90;99.90
13652;DHT22;6899;51.546;6.912;2023-02-18T03:00:25;9.80;99.90
13652;DHT22;6899;51.546;6.912;2023-02-18T03:03:25;9.90;99.90
13652;DHT22;6899;51.546;6.912;2023-02-18T03:06:09;9.90;99.90
13652;DHT22;6899;51.546;6.912;2023-02-18T03:08:48;9.90;99.90
13652;DHT22;6899;51.546;6.912;2023-02-18T03:11:17;9.90;99.90
13652;DHT22;6899;51.546;6.912;2023-02-18T03:13:52;9.90;99.90
13652;DHT22;6899;51.546;6.912;2023-02-18T03:16:26;9.90;99.90
13652;DHT22;6899;51.546;6.912;2023-02-18T03:18:58;9.90;99.90
13652;DHT22;6899;51.546;6.912;2023-02-18T03:21:29;9.90;99.90
13652;DHT22;6899;51.546;6.912;2023-02-18T03:24:00;9.90;99.90
13652;DHT22;6899;51.546;6.912;2023-02-18T03:26:30;9.80;99.90
13652;DHT22;6899;51.546;6.912;2023-02-18T03:29:01;9.80;99.90
13652;DHT22;6899;51.546;6.912;2023-02-18T03:31:30;9.90;99.90
13652;DHT22;6899;51.546;6.912;2023-02-18T03:34:01;9.80;99.90
13652;DHT22;6899;51.546;6.912;2023-02-18T03:36:32;9.80;99.90
13652;DHT22;6899;51.546;6.912;2023-02-18T03:39:03;9.90;99.90
13652;DHT22;6899;51.546;6.912;2023-02-18T03:41:31;9.90;99.90
13652;DHT22;6899;51.546;6.912;2023-02-18T03:44:01;9.90;99.90
13652;DHT22;6899;51.546;6.912;2023-02-18T03:46:33;9.90;99.90
13652;DHT22;6899;51.546;6.912;2023-02-18T03:49:04;9.80;99.90
13652;DHT22;6899;51.546;6.912;2023-02-18T03:51:32;9.90;99.90
13652;DHT22;6899;51.546;6.912;2023-02-18T03:53:59;9.90;99.90
13652;DHT22;6899;51.546;6.912;2023-02-18T03:56:26;9.90;99.90
13652;DHT22;6899;51.546;6.912;2023-02-18T03:58:53;9.90;99.90
13652;DHT22;6899;51.546;6.912;2023-02-18T04:01:20;9.80;99.90
13652;DHT22;6899;51.546;6.912;2023-02-18T04:03:50;9.90;99.90
13652;DHT22;6899;51.546;6.912;2023-02-18T04:06:17;10.00;99.90
13652;DHT22;6899;51.546;6.912;2023-02-18T04:08:46;9.90;99.90
13652;DHT22;6899;51.546;6.912;2023-02-18T04:11:13;9.90;99.90
13652;DHT22;6899;51.546;6.912;2023-02-18T04:13:40;9.90;99.90
13652;DHT22;6899;51.546;6.912;2023-02-18T04:16:07;9.90;99.90
13652;DHT22;6899;51.546;6.912;2023-02-18T04:18:34;9.80;99.90
13652;DHT22;6899;51.546;6.912;2023-02-18T04:21:01;9.90;99.90
13652;DHT22;6899;51.546;6.912;2023-02-18T04:23:28;9.90;99.90
13652;DHT22;6899;51.546;6.912;2023-02-18T04:25:59;9.90;99.90
13652;DHT22;6899;51.546;6.912;2023-02-18T04:28:25;9.90;99.90
13652;DHT22;6899;51.546;6.912;2023-02-18T04:30:52;9.90;99.90
13652;DHT22;6899;51.546;6.912;2023-02-18T04:33:19;9.90;99.90
13652;DHT22;6899;51.546;6.912;2023-02-18T04:35:49;9.90;99.90
13652;DHT22;6899;51.546;6.912;2023-02-18T04:38:16;9.90;99.90
13652;DHT22;6899;51.546;6.912;2023-02-18T04:40:52;9.90;99.90
13652;DHT22;6899;51.546;6.912;2023-02-18T04:43:20;9.90;99.90
13652;DHT22;6899;51.546;6.912;2023-02-18T04:45:47;9.90;99.90
13652;DHT22;6899;51.546;6.912;2023-02-18T04:48:14;9.90;99.90
13652;DHT22;6899;51.546;6.912;2023-02-18T04:50:43;9.90;99.90
13652;DHT22;6899;51.546;6.912;2023-02-18T04:53:10;9.90;99.90
13652;DHT22;6899;51.546;6.912;2023-02-18T04:55:36;9.90;99.90
13652;DHT22;6899;51.546;6.912;2023-02-18T04:58:03;9.90;99.90
13652;DHT22;6899;51.546;6.912;2023-02-18T05:00:31;9.90;99.90
13652;DHT22;6899;51.546;6.912;2023-02-18T05:02:58;9.80;99.90
13652;DHT22;6899;51.546;6.912;2023-02-18T05:05:25;9.90;99.90
13652;DHT22;6899;51.546;6.912;2023-02-18T05:07:52;9.90;99.90
13652;DHT22;6899;51.546;6.912;2023-02-18T05:10:19;9.80;99.90
13652;DHT22;6899;51.546;6.912;2023-02-18T05:12:47;9.80;99.90
13652;DHT22;6899;51.546;6.912;2023-02-18T05:15:17;9.90;99.90
13652;DHT22;6899;51.546;6.912;2023-02-18T05:17:45;9.80;99.90
13652;DHT22;6899;51.546;6.912;2023-02-18T05:20:12;9.80;99.90
13652;DHT22;6899;51.546;6.912;2023-02-18T05:22:39;9.80;99.90
13652;DHT22;6899;51.546;6.912;2023-02-18T05:25:07;9.80;99.90
13652;DHT22;6899;51.546;6.912;2023-02-18T05:27:33;9.70;99.90
13652;DHT22;6899;51.546;6.912;2023-02-18T05:30:00;9.70;99.90
13652;DHT22;6899;51.546;6.912;2023-02-18T05:32:27;9.80;99.90
13652;DHT22;6899;51.546;6.912;2023-02-18T05:34:55;9.80;99.90
13652;DHT22;6899;51.546;6.912;2023-02-18T05:37:25;9.70;99.90
13652;DHT22;6899;51.546;6.912;2023-02-18T05:39:58;9.70;99.90
13652;DHT22;6899;51.546;6.912;2023-02-18T05:42:25;9.70;99.90
13652;DHT22;6899;51.546;6.912;2023-02-18T05:44:52;9.70;99.90
13652;DHT22;6899;51.546;6.912;2023-02-18T05:47:19;9.70;99.90
13652;DHT22;6899;51.546;6.912;2023-02-18T05:49:49;9.70;99.90
13652;DHT22;6899;51.546;6.912;2023-02-18T05:52:20;9.70;99.90
13652;DHT22;6899;51.546;6.912;2023-02-18T05:54:47;9.70;99.90
13652;DHT22;6899;51.546;6.912;2023-02-18T05:57:15;9.70;99.90
13652;DHT22;6899;51.546;6.912;2023-02-18T05:59:41;9.70;99.90
13652;DHT22;6899;51.546;6.912;2023-02-18T06:02:14;9.70;99.90
13652;DHT22;6899;51.546;6.912;2023-02-18T06:04:41;9.70;99.90
13652;DHT22;6899;51.546;6.912;2023-02-18T06:07:08;9.70;99.90
13652;DHT22;6899;51.546;6.912;2023-02-18T06:09:37;9.70;99.90
13652;DHT22;6899;51.546;6.912;2023-02-18T06:12:04;9.60;99.90
13652;DHT22;6899;51.546;6.912;2023-02-18T06:14:31;9.70;99.90
13652;DHT22;6899;51.546;6.912;2023-02-18T06:16:59;9.70;99.90
13652;DHT22;6899;51.546;6.912;2023-02-18T06:19:25;9.70;99.90
13652;DHT22;6899;51.546;6.912;2023-02-18T06:21:52;9.70;99.90
13652;DHT22;6899;51.546;6.912;2023-02-18T06:24:23;9.70;99.90
13652;DHT22;6899;51.546;6.912;2023-02-18T06:26:55;9.70;99.90
13652;DHT22;6899;51.546;6.912;2023-02-18T06:29:22;9.70;99.90
13652;DHT22;6899;51.546;6.912;2023-02-18T06:31:49;9.70;99.90
13652;DHT22;6899;51.546;6.912;2023-02-18T06:34:16;9.70;99.90
13652;DHT22;6899;51.546;6.912;2023-02-18T06:36:43;9.70;99.90
13652;DHT22;6899;51.546;6.912;2023-02-18T06:39:10;9.70;99.90
13652;DHT22;6899;51.546;6.912;2023-02-18T06:41:40;9.70;99.90
13652;DHT22;6899;51.546;6.912;2023-02-18T06:44:09;9.60;99.90
13652;DHT22;6899;51.546;6.912;2023-02-18T06:46:36;9.60;99.90
13652;DHT22;6899;51.546;6.912;2023-02-18T06:49:03;9.60;99.90
13652;DHT22;6899;51.546;6.912;2023-02-18T06:51:30;9.60;99.90
13652;DHT22;6899;51.546;6.912;2023-02-18T06:53:57;9.60;99.90
13652;DHT22;6899;51.546;6.912;2023-02-18T06:56:24;9.60;99.90
13652;DHT22;6899;51.546;6.912;2023-02-18T06:58:50;9.60;99.90
13652;DHT22;6899;51.546;6.912;2023-02-18T07:01:19;9.60;99.90
13652;DHT22;6899;51.546;6.912;2023-02-18T07:03:46;9.60;99.90
13652;DHT22;6899;51.546;6.912;2023-02-18T07:06:13;9.60;99.90
13652;DHT22;6899;51.546;6.912;2023-02-18T07:08:40;9.60;99.90
13652;DHT22;6899;51.546;6.912;2023-02-18T07:11:07;9.60;99.90
13652;DHT22;6899;51.546;6.912;2023-02-18T07:13:34;9.60;99.90
13652;DHT22;6899;51.546;6.912;2023-02-18T07:16:01;9.60;99.90
13652;DHT22;6899;51.546;6.912;2023-02-18T07:18:29;9.50;99.90
13652;DHT22;6899;51.546;6.912;2023-02-18T07:20:56;9.50;99.90
13652;DHT22;6899;51.546;6.912;2023-02-18T07:23:23;9.50;99.90
13652;DHT22;6899;51.546;6.912;2023-02-18T07:25:50;9.60;99.90
13652;DHT22;6899;51.546;6.912;2023-02-18T07:28:18;9.50;99.90
13652;DHT22;6899;51.546;6.912;2023-02-18T07:30:45;9.60;99.90
13652;DHT22;6899;51.546;6.912;2023-02-18T07:33:13;9.50;99.90
13652;DHT22;6899;51.546;6.912;2023-02-18T07:35:41;9.50;99.90
13652;DHT22;6899;51.546;6.912;2023-02-18T07:38:11;9.50;99.90
13652;DHT22;6899;51.546;6.912;2023-02-18T07:40:38;9.50;99.90
13652;DHT22;6899;51.546;6.912;2023-02-18T07:43:05;9.50;99.90
13652;DHT22;6899;51.546;6.912;2023-02-18T07:45:32;9.50;99.90
13652;DHT22;6899;51.546;6.912;2023-02-18T07:47:59;9.50;99.90
13652;DHT22;6899;51.546;6.912;2023-02-18T07:50:26;9.50;99.90
13652;DHT22;6899;51.546;6.912;2023-02-18T07:52:55;9.50;99.90
13652;DHT22;6899;51.546;6.912;2023-02-18T07:55:22;9.50;99.90
13652;DHT22;6899;51.546;6.912;2023-02-18T07:57:51;9.60;99.90
13652;DHT22;6899;51.546;6.912;2023-02-18T08:00:32;9.60;99.90
13652;DHT22;6899;51.546;6.912;2023-02-18T08:02:59;9.60;99.90
13652;DHT22;6899;51.546;6.912;2023-02-18T08:05:26;9.50;99.90
13652;DHT22;6899;51.546;6.912;2023-02-18T08:08:13;9.60;99.90
13652;DHT22;6899;51.546;6.912;2023-02-18T08:10:44;9.60;99.90
13652;DHT22;6899;51.546;6.912;2023-02-18T08:13:39;9.60;99.90
13652;DHT22;6899;51.546;6.912;2023-02-18T08:16:07;9.60;99.90
13652;DHT22;6899;51.546;6.912;2023-02-18T08:18:34;9.70;99.90
13652;DHT22;6899;51.546;6.912;2023-02-18T08:21:02;9.60;99.90
13652;DHT22;6899;51.546;6.912;2023-02-18T08:23:30;9.60;99.90
13652;DHT22;6899;51.546;6.912;2023-02-18T08:25:57;9.60;99.90
13652;DHT22;6899;51.546;6.912;2023-02-18T08:28:24;9.50;99.90
13652;DHT22;6899;51.546;6.912;2023-02-18T08:30:52;9.50;99.90
13652;DHT22;6899;51.546;6.912;2023-02-18T08:33:20;9.50;99.90
13652;DHT22;6899;51.546;6.912;2023-02-18T08:35:49;9.40;99.90
13652;DHT22;6899;51.546;6.912;2023-02-18T08:38:17;9.40;99.90
13652;DHT22;6899;51.546;6.912;2023-02-18T08:40:45;9.40;99.90
13652;DHT22;6899;51.546;6.912;2023-02-18T08:43:13;9.40;99.90
13652;DHT22;6899;51.546;6.912;2023-02-18T08:45:40;9.40;99.90
13652;DHT22;6899;51.546;6.912;2023-02-18T08:48:16;9.40;99.90
13652;DHT22;6899;51.546;6.912;2023-02-18T08:50:42;9.40;99.90
13652;DHT22;6899;51.546;6.912;2023-02-18T08:53:09;9.40;99.90
13652;DHT22;6899;51.546;6.912;2023-02-18T08:55:39;9.30;99.90
13652;DHT22;6899;51.546;6.912;2023-02-18T08:58:08;9.20;99.90
13652;DHT22;6899;51.546;6.912;2023-02-18T09:00:35;9.20;99.90
13652;DHT22;6899;51.546;6.912;2023-02-18T09:03:06;9.10;99.90
13652;DHT22;6899;51.546;6.912;2023-02-18T09:05:47;9.10;99.90
13652;DHT22;6899;51.546;6.912;2023-02-18T09:08:14;9.10;99.90
13652;DHT22;6899;51.546;6.912;2023-02-18T09:10:41;9.10;99.90
13652;DHT22;6899;51.546;6.912;2023-02-18T09:13:09;9.00;99.90
13652;DHT22;6899;51.546;6.912;2023-02-18T09:15:40;9.00;99.90
13652;DHT22;6899;51.546;6.912;2023-02-18T09:18:07;9.00;99.90
13652;DHT22;6899;51.546;6.912;2023-02-18T09:20:34;9.00;99.90
13652;DHT22;6899;51.546;6.912;2023-02-18T09:23:01;9.00;99.90
13652;DHT22;6899;51.546;6.912;2023-02-18T09:25:28;9.00;99.90
13652;DHT22;6899;51.546;6.912;2023-02-18T09:27:57;9.00;99.90
13652;DHT22;6899;51.546;6.912;2023-02-18T09:30:26;9.00;99.90
13652;DHT22;6899;51.546;6.912;2023-02-18T09:32:53;9.00;99.90
13652;DHT22;6899;51.546;6.912;2023-02-18T09:35:20;9.00;99.90
13652;DHT22;6899;51.546;6.912;2023-02-18T09:37:47;9.00;99.90
13652;DHT22;6899;51.546;6.912;2023-02-18T09:40:23;9.00;99.90
13652;DHT22;6899;51.546;6.912;2023-02-18T09:42:54;9.10;99.90
13652;DHT22;6899;51.546;6.912;2023-02-18T09:45:23;9.00;99.90
13652;DHT22;6899;51.546;6.912;2023-02-18T09:47:52;9.00;99.90
13652;DHT22;6899;51.546;6.912;2023-02-18T09:50:22;9.10;99.90
13652;DHT22;6899;51.546;6.912;2023-02-18T09:52:49;9.10;99.90
13652;DHT22;6899;51.546;6.912;2023-02-18T09:55:20;9.10;99.90
13652;DHT22;6899;51.546;6.912;2023-02-18T09:57:49;9.20;99.90
13652;DHT22;6899;51.546;6.912;2023-02-18T10:00:22;9.30;99.90
13652;DHT22;6899;51.546;6.912;2023-02-18T10:02:56;9.30;99.90
13652;DHT22;6899;51.546;6.912;2023-02-18T10:05:25;9.20;99.90
13652;DHT22;6899;51.546;6.912;2023-02-18T10:07:55;9.30;99.90
13652;DHT22;6899;51.546;6.912;2023-02-18T10:10:33;9.20;99.90
13652;DHT22;6899;51.546;6.912;2023-02-18T10:13:08;9.20;99.90
13652;DHT22;6899;51.546;6.912;2023-02-18T10:15:38;9.10;99.90
13652;DHT22;6899;51.546;6.912;2023-02-18T10:18:16;9.20;99.90
13652;DHT22;6899;51.546;6.912;2023-02-18T10:20:43;9.10;99.90
13652;DHT22;6899;51.546;6.912;2023-02-18T10:23:12;9.10;99.90
13652;DHT22;6899;51.546;6.912;2023-02-18T10:25:43;9.20;99.90
13652;DHT22;6899;51.546;6.912;2023-02-18T10:28:11;9.20;99.90
13652;DHT22;6899;51.546;6.912;2023-02-18T10:30:42;9.20;99.90
13652;DHT22;6899;51.546;6.912;2023-02-18T10:33:21;9.30;99.90
13652;DHT22;6899;51.546;6.912;2023-02-18T10:35:56;9.30;99.90
13652;DHT22;6899;51.546;6.912;2023-02-18T10:38:32;9.30;99.90
13652;DHT22;6899;51.546;6.912;2023-02-18T10:41:08;9.20;99.90
13652;DHT22;6899;51.546;6.912;2023-02-18T10:43:41;9.20;99.90
13652;DHT22;6899;51.546;6.912;2023-02-18T10:46:20;9.20;99.90
13652;DHT22;6899;51.546;6.912;2023-02-18T10:49:08;9.20;99.90
13652;DHT22;6899;51.546;6.912;2023-02-18T10:51:44;9.10;99.90
13652;DHT22;6899;51.546;6.912;2023-02-18T10:54:14;9.00;99.90
13652;DHT22;6899;51.546;6.912;2023-02-18T10:56:46;9.00;99.90
13652;DHT22;6899;51.546;6.912;2023-02-18T10:59:18;9.00;99.90
13652;DHT22;6899;51.546;6.912;2023-02-18T11:01:53;9.00;99.90
13652;DHT22;6899;51.546;6.912;2023-02-18T11:04:33;9.00;99.90
13652;DHT22;6899;51.546;6.912;2023-02-18T11:07:04;9.00;99.90
13652;DHT22;6899;51.546;6.912;2023-02-18T11:09:38;9.00;99.90
13652;DHT22;6899;51.546;6.912;2023-02-18T11:12:14;9.00;99.90
13652;DHT22;6899;51.546;6.912;2023-02-18T11:14:44;9.00;99.90
13652;DHT22;6899;51.546;6.912;2023-02-18T11:17:20;9.10;99.90
13652;DHT22;6899;51.546;6.912;2023-02-18T11:19:54;9.10;99.90
13652;DHT22;6899;51.546;6.912;2023-02-18T11:22:23;9.20;99.90
13652;DHT22;6899;51.546;6.912;2023-02-18T11:24:58;9.10;99.90
13652;DHT22;6899;51.546;6.912;2023-02-18T11:27:30;9.10;99.90
13652;DHT22;6899;51.546;6.912;2023-02-18T11:30:00;9.20;99.90
13652;DHT22;6899;51.546;6.912;2023-02-18T11:32:29;9.20;99.90
13652;DHT22;6899;51.546;6.912;2023-02-18T11:35:02;9.10;99.90
13652;DHT22;6899;51.546;6.912;2023-02-18T11:37:35;9.10;99.90
13652;DHT22;6899;51.546;6.912;2023-02-18T11:40:06;9.30;99.90
13652;DHT22;6899;51.546;6.912;2023-02-18T11:42:34;9.20;99.90
13652;DHT22;6899;51.546;6.912;2023-02-18T11:45:04;9.20;99.90
13652;DHT22;6899;51.546;6.912;2023-02-18T11:47:47;9.20;99.90
13652;DHT22;6899;51.546;6.912;2023-02-18T11:50:33;9.30;99.90
13652;DHT22;6899;51.546;6.912;2023-02-18T11:53:25;9.30;99.90
13652;DHT22;6899;51.546;6.912;2023-02-18T11:55:54;9.20;99.90
13652;DHT22;6899;51.546;6.912;2023-02-18T11:58:40;9.20;99.90
13652;DHT22;6899;51.546;6.912;2023-02-18T12:01:13;9.30;99.90
13652;DHT22;6899;51.546;6.912;2023-02-18T12:03:50;9.30;99.90
13652;DHT22;6899;51.546;6.912;2023-02-18T12:06:33;9.40;99.90
13652;DHT22;6899;51.546;6.912;2023-02-18T12:09:24;9.30;99.90
13652;DHT22;6899;51.546;6.912;2023-02-18T12:12:04;9.40;99.90
13652;DHT22;6899;51.546;6.912;2023-02-18T12:14:35;9.40;99.90
13652;DHT22;6899;51.546;6.912;2023-02-18T12:17:18;9.40;99.90
13652;DHT22;6899;51.546;6.912;2023-02-18T12:20:09;9.40;99.90
13652;DHT22;6899;51.546;6.912;2023-02-18T12:22:49;9.40;99.90
13652;DHT22;6899;51.546;6.912;2023-02-18T12:25:27;9.40;99.90
13652;DHT22;6899;51.546;6.912;2023-02-18T12:28:05;9.40;99.90
13652;DHT22;6899;51.546;6.912;2023-02-18T12:33:37;9.50;99.90
13652;DHT22;6899;51.546;6.912;2023-02-18T12:36:15;9.50;99.90
13652;DHT22;6899;51.546;6.912;2023-02-18T12:39:08;9.40;99.90
13652;DHT22;6899;51.546;6.912;2023-02-18T12:41:48;9.40;99.90
13652;DHT22;6899;51.546;6.912;2023-02-18T12:44:30;9.40;99.90
13652;DHT22;6899;51.546;6.912;2023-02-18T12:47:19;9.50;99.90
13652;DHT22;6899;51.546;6.912;2023-02-18T12:50:08;9.50;99.90
13652;DHT22;6899;51.546;6.912;2023-02-18T12:52:56;9.40;99.90
13652;DHT22;6899;51.546;6.912;2023-02-18T12:55:50;9.50;99.90
13652;DHT22;6899;51.546;6.912;2023-02-18T12:58:26;9.50;99.90
13652;DHT22;6899;51.546;6.912;2023-02-18T13:01:25;9.40;99.90
13652;DHT22;6899;51.546;6.912;2023-02-18T13:04:09;9.50;99.90
13652;DHT22;6899;51.546;6.912;2023-02-18T13:07:07;9.40;99.90
13652;DHT22;6899;51.546;6.912;2023-02-18T13:09:50;9.50;99.90
13652;DHT22;6899;51.546;6.912;2023-02-18T13:12:27;9.50;99.90
13652;DHT22;6899;51.546;6.912;2023-02-18T13:15:00;9.60;99.90
13652;DHT22;6899;51.546;6.912;2023-02-18T13:17:37;9.70;99.90
13652;DHT22;6899;51.546;6.912;2023-02-18T13:20:19;9.70;99.90
13652;DHT22;6899;51.546;6.912;2023-02-18T13:22:50;9.70;99.90
13652;DHT22;6899;51.546;6.912;2023-02-18T13:25:20;9.60;99.90
13652;DHT22;6899;51.546;6.912;2023-02-18T13:27:57;9.70;99.90
13652;DHT22;6899;51.546;6.912;2023-02-18T13:30:37;9.50;99.90
13652;DHT22;6899;51.546;6.912;2023-02-18T13:33:14;9.60;99.90
13652;DHT22;6899;51.546;6.912;2023-02-18T13:35:47;9.60;99.90
13652;DHT22;6899;51.546;6.912;2023-02-18T13:38:55;9.70;99.90
13652;DHT22;6899;51.546;6.912;2023-02-18T13:41:35;9.60;99.90
13652;DHT22;6899;51.546;6.912;2023-02-18T13:44:39;9.60;99.90
13652;DHT22;6899;51.546;6.912;2023-02-18T13:47:35;9.60;99.90
13652;DHT22;6899;51.546;6.912;2023-02-18T13:50:15;9.70;99.90
13652;DHT22;6899;51.546;6.912;2023-02-18T13:52:42;9.80;99.90
13652;DHT22;6899;51.546;6.912;2023-02-18T13:55:37;9.80;99.90
13652;DHT22;6899;51.546;6.912;2023-02-18T13:58:11;9.80;99.90
13652;DHT22;6899;51.546;6.912;2023-02-18T14:00:53;9.90;99.90
13652;DHT22;6899;51.546;6.912;2023-02-18T14:03:38;9.90;99.90
13652;DHT22;6899;51.546;6.912;2023-02-18T14:06:28;9.90;99.90
13652;DHT22;6899;51.546;6.912;2023-02-18T14:12:37;9.80;99.90
13652;DHT22;6899;51.546;6.912;2023-02-18T14:18:32;9.90;99.90
13652;DHT22;6899;51.546;6.912;2023-02-18T14:21:39;9.90;99.90
13652;DHT22;6899;51.546;6.912;2023-02-18T14:24:08;9.90;99.90
13652;DHT22;6899;51.546;6.912;2023-02-18T14:26:39;9.90;99.90
13652;DHT22;6899;51.546;6.912;2023-02-18T14:29:26;9.90;99.90
13652;DHT22;6899;51.546;6.912;2023-02-18T14:31:56;9.90;99.90
13652;DHT22;6899;51.546;6.912;2023-02-18T14:34:43;9.90;99.90
13652;DHT22;6899;51.546;6.912;2023-02-18T14:37:46;9.90;99.90
13652;DHT22;6899;51.546;6.912;2023-02-18T14:40:29;9.90;99.90
13652;DHT22;6899;51.546;6.912;2023-02-18T14:43:07;10.00;99.90
13652;DHT22;6899;51.546;6.912;2023-02-18T14:46:09;9.90;99.90
13652;DHT22;6899;51.546;6.912;2023-02-18T14:48:53;9.90;99.90
13652;DHT22;6899;51.546;6.912;2023-02-18T14:51:33;10.00;99.90
13652;DHT22;6899;51.546;6.912;2023-02-18T14:54:14;10.00;99.90
13652;DHT22;6899;51.546;6.912;2023-02-18T14:56:51;9.90;99.90
13652;DHT22;6899;51.546;6.912;2023-02-18T14:59:23;10.00;99.90
13652;DHT22;6899;51.546;6.912;2023-02-18T15:01:53;10.00;99.90
13652;DHT22;6899;51.546;6.912;2023-02-18T15:04:24;10.10;99.90
13652;DHT22;6899;51.546;6.912;2023-02-18T15:07:07;10.00;99.90
13652;DHT22;6899;51.546;6.912;2023-02-18T15:09:54;10.20;99.90
13652;DHT22;6899;51.546;6.912;2023-02-18T15:12:23;10.00;99.90
13652;DHT22;6899;51.546;6.912;2023-02-18T15:14:52;9.90;99.90
13652;DHT22;6899;51.546;6.912;2023-02-18T15:17:29;10.00;99.90
13652;DHT22;6899;51.546;6.912;2023-02-18T15:19:58;10.00;99.90
13652;DHT22;6899;51.546;6.912;2023-02-18T15:22:30;10.00;99.90
13652;DHT22;6899;51.546;6.912;2023-02-18T15:24:58;10.00;99.90
13652;DHT22;6899;51.546;6.912;2023-02-18T15:27:27;9.90;99.90
13652;DHT22;6899;51.546;6.912;2023-02-18T15:30:04;10.00;99.90
13652;DHT22;6899;51.546;6.912;2023-02-18T15:32:38;10.00;99.90
13652;DHT22;6899;51.546;6.912;2023-02-18T15:35:14;10.00;99.90
13652;DHT22;6899;51.546;6.912;2023-02-18T15:37:50;10.00;99.90
13652;DHT22;6899;51.546;6.912;2023-02-18T15:40:18;10.00;99.90
13652;DHT22;6899;51.546;6.912;2023-02-18T15:42:47;10.00;99.90
13652;DHT22;6899;51.546;6.912;2023-02-18T15:45:20;10.00;99.90
13652;DHT22;6899;51.546;6.912;2023-02-18T15:47:49;10.00;99.90
13652;DHT22;6899;51.546;6.912;2023-02-18T15:50:19;10.00;99.90
13652;DHT22;6899;51.546;6.912;2023-02-18T15:52:50;10.00;99.90
13652;DHT22;6899;51.546;6.912;2023-02-18T15:55:23;10.00;99.90
13652;DHT22;6899;51.546;6.912;2023-02-18T15:57:51;10.10;99.90
13652;DHT22;6899;51.546;6.912;2023-02-18T16:00:25;10.00;99.90
13652;DHT22;6899;51.546;6.912;2023-02-18T16:02:56;10.00;99.90
13652;DHT22;6899;51.546;6.912;2023-02-18T16:05:28;10.00;99.90
13652;DHT22;6899;51.546;6.912;2023-02-18T16:08:03;10.10;99.90
13652;DHT22;6899;51.546;6.912;2023-02-18T16:10:49;10.10;99.90
13652;DHT22;6899;51.546;6.912;2023-02-18T16:13:31;10.00;99.90
13652;DHT22;6899;51.546;6.912;2023-02-18T16:16:00;10.00;99.90
13652;DHT22;6899;51.546;6.912;2023-02-18T16:18:29;10.00;99.90
13652;DHT22;6899;51.546;6.912;2023-02-18T16:20:59;9.90;99.90
13652;DHT22;6899;51.546;6.912;2023-02-18T16:23:34;10.00;99.90
13652;DHT22;6899;51.546;6.912;2023-02-18T16:26:29;9.90;99.90
13652;DHT22;6899;51.546;6.912;2023-02-18T16:29:10;9.90;99.90
13652;DHT22;6899;51.546;6.912;2023-02-18T16:31:37;9.90;99.90
13652;DHT22;6899;51.546;6.912;2023-02-18T16:34:04;9.90;99.90
13652;DHT22;6899;51.546;6.912;2023-02-18T16:36:32;9.90;99.90
13652;DHT22;6899;51.546;6.912;2023-02-18T16:39:00;9.90;99.90
13652;DHT22;6899;51.546;6.912;2023-02-18T16:41:28;9.90;99.90
13652;DHT22;6899;51.546;6.912;2023-02-18T16:43:56;9.90;99.90
13652;DHT22;6899;51.546;6.912;2023-02-18T16:46:23;9.90;99.90
13652;DHT22;6899;51.546;6.912;2023-02-18T16:48:59;9.80;99.90